createdAt,value
2022-08-08T00:00:52.850Z,0.00
2022-08-08T00:01:08.157Z,0.00
2022-08-08T00:02:32.940Z,0.00
2022-08-08T00:03:15.302Z,0.00
2022-08-08T00:04:03.242Z,0.00
2022-08-08T00:05:03.143Z,0.00
2022-08-08T00:06:04.397Z,0.00
2022-08-08T00:07:08.950Z,0.00
2022-08-08T00:08:03.152Z,0.00
2022-08-08T00:09:03.145Z,0.00
2022-08-08T00:10:03.156Z,0.00
2022-08-08T00:11:07.828Z,0.00
2022-08-08T00:12:08.038Z,0.00
2022-08-08T00:13:03.154Z,0.00
2022-08-08T00:14:14.895Z,0.00
2022-08-08T00:15:04.967Z,0.00
2022-08-08T00:16:03.163Z,0.00
2022-08-08T00:17:03.158Z,0.00
2022-08-08T00:18:04.741Z,0.00
2022-08-08T00:19:03.163Z,0.00
2022-08-08T00:20:03.162Z,0.00
2022-08-08T00:21:05.962Z,0.00
2022-08-08T00:22:03.165Z,0.00
2022-08-08T00:23:03.167Z,0.00
2022-08-08T00:24:03.175Z,0.00
2022-08-08T00:25:03.171Z,0.00
2022-08-08T00:26:03.171Z,0.00
2022-08-08T00:27:03.173Z,0.00
2022-08-08T00:28:03.173Z,0.00
2022-08-08T00:29:03.174Z,0.00
2022-08-08T00:30:03.177Z,0.00
2022-08-08T00:32:16.410Z,0.00
2022-08-08T00:32:21.072Z,0.00
2022-08-08T00:33:03.172Z,0.00
2022-08-08T00:34:18.008Z,0.00
2022-08-08T00:35:04.112Z,0.00
2022-08-08T00:36:03.183Z,0.00
2022-08-08T00:37:03.484Z,0.00
2022-08-08T00:38:03.330Z,0.00
2022-08-08T00:39:03.227Z,0.00
2022-08-08T00:41:06.897Z,0.00
2022-08-08T00:41:09.103Z,0.00
2022-08-08T00:42:09.008Z,0.00
2022-08-08T00:43:11.891Z,0.00
2022-08-08T00:44:03.309Z,0.00
2022-08-08T00:45:03.416Z,0.00
2022-08-08T00:46:03.193Z,0.00
2022-08-08T00:47:04.343Z,0.00
2022-08-08T00:48:06.268Z,0.00
2022-08-08T00:49:03.194Z,0.00
2022-08-08T00:50:03.206Z,0.00
2022-08-08T00:51:03.195Z,0.00
2022-08-08T00:52:03.204Z,0.00
2022-08-08T00:53:03.199Z,0.00
2022-08-08T00:54:13.662Z,0.00
2022-08-08T00:55:03.245Z,0.00
2022-08-08T00:56:03.202Z,0.00
2022-08-08T00:57:03.207Z,0.00
2022-08-08T00:58:03.202Z,0.00
2022-08-08T00:59:03.213Z,0.00
2022-08-08T01:00:05.071Z,0.00
2022-08-08T01:01:03.238Z,0.00
2022-08-08T01:02:03.245Z,0.00
2022-08-08T01:04:00.165Z,0.00
2022-08-08T01:04:04.686Z,0.00
2022-08-08T01:05:03.885Z,0.00
2022-08-08T01:06:03.208Z,0.00
2022-08-08T01:07:05.937Z,0.00
2022-08-08T01:08:03.216Z,0.00
2022-08-08T01:09:35.121Z,0.00
2022-08-08T01:10:06.344Z,0.00
2022-08-08T01:11:03.218Z,0.00
2022-08-08T01:12:03.217Z,0.00
2022-08-08T01:13:03.221Z,0.00
2022-08-08T01:14:03.220Z,0.00
2022-08-08T01:15:03.226Z,0.00
2022-08-08T01:16:03.224Z,0.00
2022-08-08T01:17:03.224Z,0.00
2022-08-08T01:18:03.225Z,0.00
2022-08-08T01:19:13.982Z,0.00
2022-08-08T01:20:03.679Z,0.00
2022-08-08T01:21:03.230Z,0.00
2022-08-08T01:22:10.216Z,0.00
2022-08-08T01:23:03.229Z,0.00
2022-08-08T01:24:13.547Z,0.00
2022-08-08T01:25:03.230Z,0.00
2022-08-08T01:26:11.192Z,0.00
2022-08-08T01:27:03.233Z,0.00
2022-08-08T01:28:03.236Z,0.00
2022-08-08T01:29:03.236Z,0.00
2022-08-08T01:31:03.238Z,0.00
2022-08-08T01:32:13.535Z,0.00
2022-08-08T01:33:03.238Z,0.00
2022-08-08T01:34:03.241Z,0.00
2022-08-08T01:35:11.843Z,0.00
2022-08-08T01:36:03.246Z,0.00
2022-08-08T01:37:03.242Z,0.00
2022-08-08T01:38:03.246Z,0.00
2022-08-08T01:39:03.273Z,0.00
2022-08-08T01:40:03.355Z,0.00
2022-08-08T01:41:03.244Z,0.00
2022-08-08T01:42:03.246Z,0.00
2022-08-08T01:43:03.249Z,0.00
2022-08-08T01:44:03.251Z,0.00
2022-08-08T01:45:03.248Z,0.00
2022-08-08T01:46:03.252Z,0.00
2022-08-08T01:47:15.724Z,0.00
2022-08-08T01:48:16.489Z,0.00
2022-08-08T01:49:03.250Z,0.00
2022-08-08T01:50:03.253Z,0.00
2022-08-08T01:51:03.258Z,0.00
2022-08-08T01:52:53.990Z,0.00
2022-08-08T01:54:57.585Z,0.00
2022-08-08T01:55:26.622Z,0.00
2022-08-08T01:55:45.333Z,0.00
2022-08-08T01:56:28.539Z,0.00
2022-08-08T01:57:03.258Z,0.00
2022-08-08T01:58:13.341Z,0.00
2022-08-08T01:59:03.266Z,0.00
2022-08-08T02:00:03.673Z,0.00
2022-08-08T02:01:03.342Z,0.00
2022-08-08T02:02:05.212Z,0.00
2022-08-08T02:03:04.545Z,0.00
2022-08-08T02:04:03.279Z,0.00
2022-08-08T02:05:03.272Z,0.00
2022-08-08T02:06:03.274Z,0.00
2022-08-08T02:07:04.046Z,0.00
2022-08-08T02:08:03.268Z,0.00
2022-08-08T02:09:03.272Z,0.00
2022-08-08T02:10:12.056Z,0.00
2022-08-08T02:11:03.270Z,0.00
2022-08-08T02:12:03.274Z,0.00
2022-08-08T02:13:03.282Z,0.00
2022-08-08T02:14:03.282Z,0.00
2022-08-08T02:15:03.276Z,0.00
2022-08-08T02:16:03.274Z,0.00
2022-08-08T02:17:03.281Z,0.00
2022-08-08T02:18:03.281Z,0.00
2022-08-08T02:19:26.966Z,0.00
2022-08-08T02:20:09.582Z,0.00
2022-08-08T02:21:08.211Z,0.00
2022-08-08T02:22:03.281Z,0.00
2022-08-08T02:23:03.300Z,0.00
2022-08-08T02:24:03.286Z,0.00
2022-08-08T02:25:07.469Z,0.00
2022-08-08T02:26:03.285Z,0.00
2022-08-08T02:27:03.287Z,0.00
2022-08-08T02:28:03.285Z,0.00
2022-08-08T02:29:03.285Z,0.00
2022-08-08T02:30:03.290Z,0.00
2022-08-08T02:31:04.806Z,0.00
2022-08-08T02:32:04.945Z,0.00
2022-08-08T02:33:03.290Z,0.00
2022-08-08T02:34:08.762Z,0.00
2022-08-08T02:35:08.023Z,0.00
2022-08-08T02:36:04.879Z,0.00
2022-08-08T02:37:03.299Z,0.00
2022-08-08T02:38:03.310Z,0.00
2022-08-08T02:39:03.368Z,0.00
2022-08-08T02:40:03.454Z,0.00
2022-08-08T02:41:03.298Z,0.00
2022-08-08T02:42:05.873Z,0.00
2022-08-08T02:44:34.935Z,4.00
2022-08-08T02:44:42.608Z,4.00
2022-08-08T02:45:03.696Z,4.00
2022-08-08T02:46:03.300Z,4.00
2022-08-08T02:47:03.307Z,4.00
2022-08-08T02:48:03.303Z,4.00
2022-08-08T02:49:03.304Z,4.00
2022-08-08T02:50:03.300Z,4.00
2022-08-08T02:51:03.307Z,4.00
2022-08-08T02:52:11.511Z,4.00
2022-08-08T02:53:03.311Z,4.00
2022-08-08T02:54:03.309Z,4.00
2022-08-08T02:55:03.327Z,8.00
2022-08-08T02:56:03.342Z,8.00
2022-08-08T02:57:03.311Z,8.00
2022-08-08T02:58:03.308Z,8.00
2022-08-08T02:59:17.139Z,8.00
2022-08-08T03:00:27.089Z,8.00
2022-08-08T03:01:03.313Z,8.00
2022-08-08T03:02:03.373Z,8.00
2022-08-08T03:03:03.312Z,4.00
2022-08-08T03:05:03.694Z,4.00
2022-08-08T03:05:09.420Z,8.00
2022-08-08T03:06:03.316Z,8.00
2022-08-08T03:07:07.251Z,8.00
2022-08-08T03:08:03.316Z,8.00
2022-08-08T03:09:03.318Z,8.00
2022-08-08T03:10:03.323Z,8.00
2022-08-08T03:11:03.321Z,8.00
2022-08-08T03:12:05.784Z,8.00
2022-08-08T03:13:07.350Z,12.00
2022-08-08T03:15:56.773Z,12.00
2022-08-08T03:16:00.165Z,12.00
2022-08-08T03:16:05.137Z,16.00
2022-08-08T03:17:03.329Z,16.00
2022-08-08T03:18:05.149Z,16.00
2022-08-08T03:19:03.327Z,16.00
2022-08-08T03:20:03.799Z,16.00
2022-08-08T03:21:10.200Z,20.00
2022-08-08T03:22:03.325Z,24.00
2022-08-08T03:23:04.632Z,24.00
2022-08-08T03:24:03.332Z,28.00
2022-08-08T03:25:03.330Z,32.00
2022-08-08T03:26:03.336Z,36.00
2022-08-08T03:27:03.334Z,40.00
2022-08-08T03:28:03.331Z,40.00
2022-08-08T03:29:03.603Z,44.00
2022-08-08T03:30:03.351Z,48.00
2022-08-08T03:31:22.723Z,56.00
2022-08-08T03:32:06.533Z,60.00
2022-08-08T03:33:07.998Z,68.00
2022-08-08T03:34:03.433Z,68.00
2022-08-08T03:35:03.348Z,76.00
2022-08-08T03:36:03.544Z,84.00
2022-08-08T03:37:10.697Z,88.00
2022-08-08T03:38:55.095Z,96.00
2022-08-08T03:39:15.018Z,100.00
2022-08-08T03:40:03.905Z,108.00
2022-08-08T03:41:08.840Z,116.00
2022-08-08T03:42:26.893Z,124.00
2022-08-08T03:43:16.711Z,136.00
2022-08-08T03:44:03.342Z,144.00
2022-08-08T03:46:03.115Z,156.00
2022-08-08T03:46:08.331Z,164.00
2022-08-08T03:47:07.103Z,176.00
2022-08-08T03:48:03.345Z,192.00
2022-08-08T03:49:56.195Z,200.00
2022-08-08T03:50:03.349Z,216.00
2022-08-08T03:51:03.349Z,224.00
2022-08-08T03:52:03.349Z,236.00
2022-08-08T03:53:03.350Z,248.00
2022-08-08T03:54:03.356Z,256.00
2022-08-08T03:55:20.342Z,264.00
2022-08-08T03:56:04.411Z,276.00
2022-08-08T03:58:30.244Z,288.00
2022-08-08T03:58:33.349Z,284.00
2022-08-08T03:59:03.354Z,296.00
2022-08-08T04:00:11.120Z,300.00
2022-08-08T04:01:23.415Z,304.00
2022-08-08T04:02:15.820Z,308.00
2022-08-08T04:03:04.183Z,312.00
2022-08-08T04:04:03.432Z,312.00
2022-08-08T04:05:03.360Z,320.00
2022-08-08T04:06:03.355Z,320.00
2022-08-08T04:07:03.394Z,320.00
2022-08-08T04:08:03.363Z,328.00
2022-08-08T04:09:06.840Z,332.00
2022-08-08T04:10:05.382Z,336.00
2022-08-08T04:11:10.588Z,344.00
2022-08-08T04:12:03.359Z,348.00
2022-08-08T04:13:17.393Z,356.00
2022-08-08T04:14:33.923Z,368.00
2022-08-08T04:15:03.366Z,376.00
2022-08-08T04:16:05.612Z,380.00
2022-08-08T04:17:04.315Z,392.00
2022-08-08T04:18:03.370Z,400.00
2022-08-08T04:19:03.367Z,408.00
2022-08-08T04:20:04.712Z,412.00
2022-08-08T04:21:06.327Z,420.00
2022-08-08T04:22:03.366Z,428.00
2022-08-08T04:23:07.011Z,440.00
2022-08-08T04:24:11.960Z,452.00
2022-08-08T04:25:03.367Z,460.00
2022-08-08T04:26:09.223Z,472.00
2022-08-08T04:27:03.375Z,480.00
2022-08-08T04:28:36.452Z,492.00
2022-08-08T04:29:03.382Z,496.00
2022-08-08T04:30:18.392Z,508.00
2022-08-08T04:31:04.550Z,516.00
2022-08-08T04:32:03.375Z,520.00
2022-08-08T04:33:03.376Z,528.00
2022-08-08T04:34:03.376Z,540.00
2022-08-08T04:35:03.374Z,548.00
2022-08-08T04:36:03.374Z,560.00
2022-08-08T04:37:03.983Z,572.00
2022-08-08T04:38:03.376Z,588.00
2022-08-08T04:39:47.697Z,596.00
2022-08-08T04:40:07.746Z,604.00
2022-08-08T04:41:03.487Z,612.00
2022-08-08T04:42:03.378Z,628.00
2022-08-08T04:43:03.383Z,636.00
2022-08-08T04:44:03.381Z,648.00
2022-08-08T04:45:03.388Z,664.00
2022-08-08T04:46:03.609Z,680.00
2022-08-08T04:47:03.380Z,700.00
2022-08-08T04:48:03.538Z,724.00
2022-08-08T04:49:03.383Z,744.00
2022-08-08T04:50:04.974Z,768.00
2022-08-08T04:51:03.384Z,796.00
2022-08-08T04:52:04.196Z,812.00
2022-08-08T04:53:05.077Z,832.00
2022-08-08T04:54:38.175Z,864.00
2022-08-08T04:55:04.424Z,872.00
2022-08-08T04:56:03.391Z,892.00
2022-08-08T04:57:03.390Z,904.00
2022-08-08T04:58:04.192Z,920.00
2022-08-08T04:59:03.388Z,940.00
2022-08-08T05:00:03.390Z,956.00
2022-08-08T05:01:08.947Z,976.00
2022-08-08T05:02:03.475Z,988.00
2022-08-08T05:03:05.592Z,996.00
2022-08-08T05:04:10.002Z,1008.00
2022-08-08T05:05:03.400Z,1016.00
2022-08-08T05:06:13.515Z,1028.00
2022-08-08T05:07:03.403Z,1036.00
2022-08-08T05:08:03.397Z,1048.00
2022-08-08T05:09:06.020Z,1060.00
2022-08-08T05:10:03.398Z,1072.00
2022-08-08T05:11:03.402Z,1084.00
2022-08-08T05:12:03.411Z,1096.00
2022-08-08T05:13:03.407Z,1108.00
2022-08-08T05:14:03.456Z,1116.00
2022-08-08T05:15:05.225Z,1128.00
2022-08-08T05:16:54.650Z,1132.00
2022-08-08T05:17:08.864Z,1144.00
2022-08-08T05:18:03.403Z,1148.00
2022-08-08T05:19:03.403Z,1160.00
2022-08-08T05:20:10.666Z,1164.00
2022-08-08T05:21:05.937Z,1180.00
2022-08-08T05:22:03.404Z,1184.00
2022-08-08T05:23:03.401Z,1196.00
2022-08-08T05:24:04.165Z,1204.00
2022-08-08T05:25:03.408Z,1212.00
2022-08-08T05:26:03.413Z,1220.00
2022-08-08T05:27:03.412Z,1228.00
2022-08-08T05:28:03.411Z,1236.00
2022-08-08T05:29:04.811Z,1244.00
2022-08-08T05:30:03.747Z,1252.00
2022-08-08T05:31:19.094Z,1264.00
2022-08-08T05:32:06.204Z,1272.00
2022-08-08T05:33:03.592Z,1284.00
2022-08-08T05:34:03.415Z,1292.00
2022-08-08T05:35:05.005Z,1308.00
2022-08-08T05:36:03.419Z,1320.00
2022-08-08T05:37:03.410Z,1332.00
2022-08-08T05:38:03.415Z,1340.00
2022-08-08T05:39:03.462Z,1352.00
2022-08-08T05:40:03.418Z,1364.00
2022-08-08T05:41:03.414Z,1372.00
2022-08-08T05:42:03.415Z,1380.00
2022-08-08T05:43:03.417Z,1388.00
2022-08-08T05:44:04.782Z,1404.00
2022-08-08T05:45:10.216Z,1416.00
2022-08-08T05:46:04.270Z,1424.00
2022-08-08T05:47:05.038Z,1432.00
2022-08-08T05:48:08.638Z,1448.00
2022-08-08T05:49:07.550Z,1456.00
2022-08-08T05:50:03.426Z,1468.00
2022-08-08T05:51:14.878Z,1476.00
2022-08-08T05:52:03.429Z,1484.00
2022-08-08T05:53:54.463Z,1496.00
2022-08-08T05:54:27.387Z,1504.00
2022-08-08T05:55:07.508Z,1508.00
2022-08-08T05:56:11.600Z,1520.00
2022-08-08T05:57:04.707Z,1536.00
2022-08-08T05:58:05.042Z,1548.00
2022-08-08T05:59:03.972Z,1560.00
2022-08-08T06:00:23.720Z,1572.00
2022-08-08T06:01:04.998Z,1584.00
2022-08-08T06:02:03.429Z,1596.00
2022-08-08T06:03:03.531Z,1608.00
2022-08-08T06:04:08.400Z,1616.00
2022-08-08T06:05:06.764Z,1632.00
2022-08-08T06:06:06.054Z,1644.00
2022-08-08T06:07:03.436Z,1656.00
2022-08-08T06:08:09.005Z,1672.00
2022-08-08T06:09:41.642Z,1684.00
2022-08-08T06:10:03.438Z,1696.00
2022-08-08T06:11:03.440Z,1712.00
2022-08-08T06:12:03.436Z,1720.00
2022-08-08T06:13:03.769Z,1728.00
2022-08-08T06:14:03.491Z,1744.00
2022-08-08T06:15:06.112Z,1752.00
2022-08-08T06:16:03.440Z,1764.00
2022-08-08T06:17:03.442Z,1772.00
2022-08-08T06:18:18.576Z,1780.00
2022-08-08T06:19:04.045Z,1788.00
2022-08-08T06:20:03.449Z,1792.00
2022-08-08T06:21:11.694Z,1804.00
2022-08-08T06:22:32.146Z,1816.00
2022-08-08T06:23:03.452Z,1824.00
2022-08-08T06:24:05.434Z,1840.00
2022-08-08T06:25:03.456Z,1848.00
2022-08-08T06:26:41.410Z,1856.00
2022-08-08T06:27:03.452Z,1868.00
2022-08-08T06:28:03.458Z,1880.00
2022-08-08T06:29:03.466Z,1896.00
2022-08-08T06:30:03.456Z,1908.00
2022-08-08T06:31:03.450Z,1928.00
2022-08-08T06:32:09.785Z,1948.00
2022-08-08T06:33:03.458Z,1968.00
2022-08-08T06:34:27.069Z,1988.00
2022-08-08T06:36:00.532Z,2012.00
2022-08-08T06:36:06.925Z,2032.00
2022-08-08T06:37:24.186Z,2048.00
2022-08-08T06:38:03.461Z,2068.00
2022-08-08T06:39:06.813Z,2080.00
2022-08-08T06:40:03.564Z,2100.00
2022-08-08T06:41:03.464Z,2120.00
2022-08-08T06:42:03.475Z,2136.00
2022-08-08T06:43:03.465Z,2156.00
2022-08-08T06:44:03.475Z,2176.00
2022-08-08T06:45:05.479Z,2196.00
2022-08-08T06:46:03.473Z,2220.00
2022-08-08T06:47:03.478Z,2244.00
2022-08-08T06:48:04.571Z,2264.00
2022-08-08T06:49:03.474Z,2284.00
2022-08-08T06:50:04.278Z,2308.00
2022-08-08T06:51:08.542Z,2332.00
2022-08-08T06:52:03.483Z,2352.00
2022-08-08T06:53:10.151Z,2372.00
2022-08-08T06:54:03.483Z,2400.00
2022-08-08T06:55:03.479Z,2420.00
2022-08-08T06:56:03.548Z,2444.00
2022-08-08T06:57:03.483Z,2476.00
2022-08-08T06:58:04.160Z,2504.00
2022-08-08T06:59:06.030Z,2528.00
2022-08-08T07:00:11.367Z,2556.00
2022-08-08T07:02:14.242Z,2580.00
2022-08-08T07:02:26.553Z,2604.00
2022-08-08T07:03:04.866Z,2624.00
2022-08-08T07:04:38.733Z,2648.00
2022-08-08T07:05:04.781Z,2676.00
2022-08-08T07:06:03.494Z,2700.00
2022-08-08T07:07:10.536Z,2728.00
2022-08-08T07:08:04.649Z,2764.00
2022-08-08T07:09:03.497Z,2796.00
2022-08-08T07:10:03.497Z,2828.00
2022-08-08T07:11:03.499Z,2860.00
2022-08-08T07:12:03.504Z,2896.00
2022-08-08T07:13:03.502Z,2928.00
2022-08-08T07:14:03.505Z,2968.00
2022-08-08T07:15:04.508Z,3012.00
2022-08-08T07:16:05.695Z,3044.00
2022-08-08T07:17:09.549Z,3088.00
2022-08-08T07:18:36.064Z,3128.00
2022-08-08T07:19:03.512Z,3172.00
2022-08-08T07:20:03.521Z,3216.00
2022-08-08T07:21:04.584Z,3272.00
2022-08-08T07:22:05.354Z,3316.00
2022-08-08T07:23:04.734Z,3360.00
2022-08-08T07:24:04.621Z,3416.00
2022-08-08T07:25:03.527Z,3484.00
2022-08-08T07:26:03.521Z,3556.00
2022-08-08T07:27:05.667Z,3632.00
2022-08-08T07:28:07.712Z,3720.00
2022-08-08T07:29:05.699Z,3808.00
2022-08-08T07:30:08.212Z,3876.00
2022-08-08T07:31:03.532Z,3932.00
2022-08-08T07:32:03.537Z,3988.00
2022-08-08T07:33:03.533Z,4088.00
2022-08-08T07:34:03.535Z,4332.00
2022-08-08T07:35:06.280Z,11696.00
2022-08-08T07:36:03.544Z,27008.00
2022-08-08T07:37:11.511Z,41280.00
2022-08-08T07:38:10.051Z,49632.00
2022-08-08T07:39:03.680Z,51232.00
2022-08-08T07:40:03.646Z,53952.00
2022-08-08T07:41:04.326Z,56512.00
2022-08-08T07:42:05.415Z,51680.00
2022-08-08T07:43:04.146Z,52896.00
2022-08-08T07:44:08.610Z,56736.00
2022-08-08T07:45:03.561Z,56864.00
2022-08-08T07:46:17.595Z,55456.00
2022-08-08T07:47:03.573Z,59616.00
2022-08-08T07:48:03.571Z,58240.00
2022-08-08T07:49:03.572Z,54976.00
2022-08-08T07:50:03.575Z,58016.00
2022-08-08T07:51:04.489Z,61536.00
2022-08-08T07:52:03.586Z,55104.00
2022-08-08T07:53:03.589Z,44512.00
2022-08-08T07:54:03.802Z,30080.00
2022-08-08T07:55:03.599Z,16576.00
2022-08-08T07:56:03.604Z,9432.00
2022-08-08T07:57:03.599Z,8672.00
2022-08-08T07:58:03.610Z,8628.00
2022-08-08T07:59:03.606Z,8708.00
2022-08-08T08:00:03.616Z,8816.00
2022-08-08T08:01:03.742Z,8904.00
2022-08-08T08:02:36.287Z,8988.00
2022-08-08T08:03:03.628Z,9060.00
2022-08-08T08:04:03.782Z,9148.00
2022-08-08T08:05:03.921Z,9212.00
2022-08-08T08:06:03.683Z,9256.00
2022-08-08T08:07:03.650Z,9304.00
2022-08-08T08:08:03.652Z,9392.00
2022-08-08T08:09:03.657Z,9484.00
2022-08-08T08:10:03.662Z,9628.00
2022-08-08T08:11:03.672Z,10020.00
2022-08-08T08:12:03.673Z,14552.00
2022-08-08T08:13:03.674Z,22400.00
2022-08-08T08:14:08.584Z,30048.00
2022-08-08T08:15:04.424Z,44832.00
2022-08-08T08:16:03.700Z,56288.00
2022-08-08T08:17:03.700Z,54304.00
2022-08-08T08:18:03.706Z,58880.00
2022-08-08T08:19:03.760Z,63072.00
2022-08-08T08:20:03.719Z,49728.00
2022-08-08T08:21:03.723Z,27936.00
2022-08-08T08:22:07.914Z,10884.00
2022-08-08T08:23:03.829Z,7972.00
2022-08-08T08:24:03.745Z,7812.00
2022-08-08T08:25:08.289Z,7780.00
2022-08-08T08:26:03.756Z,7808.00
2022-08-08T08:27:03.965Z,7896.00
2022-08-08T08:28:03.773Z,8040.00
2022-08-08T08:29:03.773Z,8304.00
2022-08-08T08:30:03.789Z,9276.00
2022-08-08T08:31:03.788Z,34176.00
2022-08-08T08:32:05.884Z,67712.00
2022-08-08T08:33:03.799Z,72416.00
2022-08-08T08:34:03.814Z,74112.00
2022-08-08T08:35:03.831Z,74272.00
2022-08-08T08:36:19.887Z,70432.00
2022-08-08T08:37:08.368Z,68768.00
2022-08-08T08:38:17.522Z,64896.00
2022-08-08T08:39:07.530Z,63776.00
2022-08-08T08:40:03.912Z,63232.00
2022-08-08T08:41:13.102Z,66176.00
2022-08-08T08:42:03.876Z,69888.00
2022-08-08T08:43:03.889Z,67008.00
2022-08-08T08:44:13.386Z,68896.00
2022-08-08T08:45:21.942Z,75968.00
2022-08-08T08:46:05.790Z,74144.00
2022-08-08T08:47:03.922Z,71296.00
2022-08-08T08:48:03.934Z,73472.00
2022-08-08T08:49:03.949Z,75648.00
2022-08-08T08:50:03.958Z,81408.00
2022-08-08T08:51:03.974Z,85120.00
2022-08-08T08:52:03.985Z,79232.00
2022-08-08T08:53:04.816Z,74720.00
2022-08-08T08:54:04.005Z,80192.00
2022-08-08T08:55:04.013Z,83648.00
2022-08-08T08:56:04.032Z,71616.00
2022-08-08T08:57:04.043Z,62912.00
2022-08-08T08:58:04.069Z,73824.00
2022-08-08T08:59:04.070Z,83488.00
2022-08-08T09:00:05.562Z,74112.00
2022-08-08T09:01:09.250Z,70944.00
2022-08-08T09:02:04.154Z,81152.00
2022-08-08T09:03:04.127Z,80608.00
2022-08-08T09:04:04.145Z,69984.00
2022-08-08T09:05:04.158Z,63520.00
2022-08-08T09:06:04.178Z,74368.00
2022-08-08T09:07:12.920Z,87296.00
2022-08-08T09:08:12.680Z,81952.00
2022-08-08T09:09:04.227Z,71776.00
2022-08-08T09:10:04.646Z,72064.00
2022-08-08T09:11:04.254Z,77152.00
2022-08-08T09:12:07.693Z,76416.00
2022-08-08T09:13:04.283Z,75104.00
2022-08-08T09:14:04.305Z,74688.00
2022-08-08T09:15:06.111Z,69248.00
2022-08-08T09:16:04.345Z,63712.00
2022-08-08T09:17:11.748Z,68032.00
2022-08-08T09:18:04.375Z,71424.00
2022-08-08T09:19:04.442Z,72096.00
2022-08-08T09:21:56.138Z,78304.00
2022-08-08T09:21:59.249Z,90880.00
2022-08-08T09:22:06.347Z,94720.00
2022-08-08T09:23:04.464Z,83712.00
2022-08-08T09:24:04.487Z,75776.00
2022-08-08T09:25:04.515Z,78592.00
2022-08-08T09:26:04.527Z,81728.00
2022-08-08T09:27:04.553Z,79744.00
2022-08-08T09:28:05.152Z,85376.00
2022-08-08T09:29:08.402Z,94592.00
2022-08-08T09:30:04.609Z,96192.00
2022-08-08T09:31:12.658Z,89056.00
2022-08-08T09:32:04.650Z,79552.00
2022-08-08T09:33:54.094Z,79072.00
2022-08-08T09:34:31.565Z,84576.00
2022-08-08T09:35:08.292Z,88736.00
2022-08-08T09:36:04.734Z,84096.00
2022-08-08T09:37:57.429Z,84704.00
2022-08-08T09:38:05.799Z,90784.00
2022-08-08T09:39:15.307Z,87936.00
2022-08-08T09:40:11.464Z,77888.00
2022-08-08T09:41:04.862Z,33088.00
2022-08-08T09:42:20.991Z,38560.00
2022-08-08T09:43:06.839Z,51776.00
2022-08-08T09:44:15.180Z,92928.00
2022-08-08T09:45:08.069Z,81408.00
2022-08-08T09:46:07.600Z,74464.00
2022-08-08T09:47:05.025Z,21216.00
2022-08-08T09:48:16.120Z,14620.00
2022-08-08T09:49:41.392Z,17824.00
2022-08-08T09:50:10.054Z,18432.00
2022-08-08T09:51:05.693Z,9564.00
2022-08-08T09:52:09.176Z,10876.00
2022-08-08T09:53:23.705Z,33376.00
2022-08-08T09:54:11.941Z,70144.00
2022-08-08T09:55:05.157Z,90112.00
2022-08-08T09:56:07.026Z,53920.00
2022-08-08T09:57:05.197Z,94688.00
2022-08-08T09:58:05.219Z,39872.00
2022-08-08T09:59:25.917Z,22912.00
2022-08-08T10:00:34.276Z,18272.00
2022-08-08T10:01:14.986Z,22368.00
2022-08-08T10:02:12.857Z,64992.00
2022-08-08T10:03:05.329Z,67104.00
2022-08-08T10:04:05.508Z,89856.00
2022-08-08T10:05:07.202Z,90176.00
2022-08-08T10:06:05.487Z,89216.00
2022-08-08T10:07:07.580Z,94752.00
2022-08-08T10:08:05.441Z,101888.00
2022-08-08T10:09:05.460Z,103072.00
2022-08-08T10:10:07.104Z,98016.00
2022-08-08T10:12:22.172Z,92544.00
2022-08-08T10:12:25.856Z,91904.00
2022-08-08T10:13:14.297Z,97376.00
2022-08-08T10:14:06.154Z,93056.00
2022-08-08T10:15:17.298Z,82464.00
2022-08-08T10:16:05.655Z,79872.00
2022-08-08T10:17:38.746Z,91008.00
2022-08-08T10:18:11.546Z,105312.00
2022-08-08T10:19:05.736Z,104896.00
2022-08-08T10:20:05.707Z,92128.00
2022-08-08T10:21:22.528Z,81856.00
2022-08-08T10:22:05.751Z,83648.00
2022-08-08T10:23:05.776Z,91104.00
2022-08-08T10:24:12.243Z,99520.00
2022-08-08T10:25:05.892Z,102368.00
2022-08-08T10:26:25.577Z,102464.00
2022-08-08T10:27:05.877Z,99232.00
2022-08-08T10:28:05.894Z,94784.00
2022-08-08T10:29:05.925Z,96320.00
2022-08-08T10:30:05.947Z,102400.00
2022-08-08T10:31:05.971Z,108576.00
2022-08-08T10:32:05.994Z,102496.00
2022-08-08T10:33:06.020Z,96000.00
2022-08-08T10:34:18.791Z,96800.00
2022-08-08T10:35:11.548Z,101376.00
2022-08-08T10:36:19.926Z,97024.00
2022-08-08T10:37:06.118Z,88160.00
2022-08-08T10:38:08.298Z,86112.00
2022-08-08T10:39:07.278Z,96896.00
2022-08-08T10:40:06.784Z,107744.00
2022-08-08T10:41:06.221Z,105472.00
2022-08-08T10:42:16.270Z,93952.00
2022-08-08T10:43:06.275Z,88192.00
2022-08-08T10:44:06.294Z,95584.00
2022-08-08T10:45:09.082Z,101184.00
2022-08-08T10:46:06.349Z,95904.00
2022-08-08T10:47:06.379Z,86624.00
2022-08-08T10:48:06.399Z,82592.00
2022-08-08T10:49:06.427Z,89504.00
2022-08-08T10:50:06.457Z,95264.00
2022-08-08T10:51:06.476Z,83552.00
2022-08-08T10:52:06.496Z,34560.00
2022-08-08T10:53:07.814Z,17152.00
2022-08-08T10:54:06.549Z,20032.00
2022-08-08T10:55:06.829Z,17568.00
2022-08-08T10:56:06.605Z,17824.00
2022-08-08T10:57:08.927Z,16752.00
2022-08-08T10:58:06.703Z,15868.00
2022-08-08T10:59:06.682Z,15196.00
2022-08-08T11:00:06.702Z,18080.00
2022-08-08T11:01:10.897Z,63648.00
2022-08-08T11:02:06.896Z,81600.00
2022-08-08T11:03:06.782Z,60480.00
2022-08-08T11:04:06.794Z,84512.00
2022-08-08T11:05:14.982Z,84320.00
2022-08-08T11:06:06.847Z,81376.00
2022-08-08T11:07:07.312Z,83200.00
2022-08-08T11:08:38.721Z,83168.00
2022-08-08T11:09:15.173Z,88928.00
2022-08-08T11:10:06.944Z,94336.00
2022-08-08T11:11:08.018Z,98496.00
2022-08-08T11:12:13.412Z,98400.00
2022-08-08T11:13:28.508Z,93568.00
2022-08-08T11:14:07.036Z,85312.00
2022-08-08T11:15:07.069Z,83744.00
2022-08-08T11:16:07.665Z,83744.00
2022-08-08T11:17:07.114Z,84288.00
2022-08-08T11:18:07.139Z,88192.00
2022-08-08T11:19:10.621Z,31552.00
2022-08-08T11:20:07.195Z,58400.00
2022-08-08T11:21:10.068Z,63360.00
2022-08-08T11:22:07.235Z,70880.00
2022-08-08T11:23:07.261Z,81152.00
2022-08-08T11:24:07.288Z,36928.00
2022-08-08T11:25:14.434Z,20704.00
2022-08-08T11:26:07.340Z,20640.00
2022-08-08T11:27:19.265Z,23840.00
2022-08-08T11:28:07.386Z,23008.00
2022-08-08T11:29:07.413Z,23520.00
2022-08-08T11:30:20.152Z,15604.00
2022-08-08T11:31:09.675Z,22656.00
2022-08-08T11:32:07.482Z,77600.00
2022-08-08T11:33:12.478Z,82304.00
2022-08-08T11:34:24.082Z,48480.00
2022-08-08T11:35:24.457Z,42752.00
2022-08-08T11:36:07.589Z,15576.00
2022-08-08T11:37:15.305Z,13392.00
2022-08-08T11:38:35.979Z,12372.00
2022-08-08T11:39:12.650Z,12716.00
2022-08-08T11:40:07.790Z,12720.00
2022-08-08T11:41:07.697Z,11948.00
2022-08-08T11:42:09.116Z,10852.00
2022-08-08T11:43:07.743Z,10260.00
2022-08-08T11:44:07.770Z,9980.00
2022-08-08T11:45:07.787Z,9864.00
2022-08-08T11:46:13.584Z,9976.00
2022-08-08T11:47:12.775Z,10144.00
2022-08-08T11:48:09.672Z,10060.00
2022-08-08T11:49:08.639Z,10792.00
2022-08-08T11:50:10.207Z,12496.00
2022-08-08T11:51:38.092Z,14952.00
2022-08-08T11:52:07.938Z,16160.00
2022-08-08T11:53:07.961Z,16624.00
2022-08-08T11:54:26.784Z,33088.00
2022-08-08T11:55:08.000Z,24800.00
2022-08-08T11:56:08.023Z,37600.00
2022-08-08T11:57:14.639Z,19168.00
2022-08-08T11:58:14.449Z,18240.00
2022-08-08T11:59:08.087Z,17888.00
2022-08-08T12:00:10.392Z,16112.00
2022-08-08T12:01:12.048Z,14160.00
2022-08-08T12:02:41.596Z,12912.00
2022-08-08T12:03:08.212Z,12436.00
2022-08-08T12:04:08.186Z,12244.00
2022-08-08T12:05:08.200Z,11952.00
2022-08-08T12:06:08.214Z,12020.00
2022-08-08T12:07:16.786Z,11768.00
2022-08-08T12:08:08.253Z,24608.00
2022-08-08T12:09:08.281Z,11380.00
2022-08-08T12:10:08.362Z,10524.00
2022-08-08T12:11:08.308Z,12688.00
2022-08-08T12:12:08.325Z,38400.00
2022-08-08T12:13:09.847Z,41728.00
2022-08-08T12:14:11.677Z,44256.00
2022-08-08T12:15:09.461Z,33248.00
2022-08-08T12:16:08.397Z,44192.00
2022-08-08T12:17:08.418Z,36160.00
2022-08-08T12:18:08.435Z,18048.00
2022-08-08T12:19:08.462Z,11880.00
2022-08-08T12:20:08.471Z,11992.00